createdAt,value
2019-04-27T00:02:26.620Z,11.20
2019-04-27T00:05:11.438Z,11.15
2019-04-27T00:07:51.478Z,11.17
2019-04-27T00:10:37.431Z,11.16
2019-04-27T00:13:05.939Z,11.17
2019-04-27T00:15:59.018Z,11.14
2019-04-27T00:18:57.924Z,11.14
2019-04-27T00:21:40.083Z,11.15
2019-04-27T00:24:08.493Z,11.12
2019-04-27T00:26:36.652Z,11.10
2019-04-27T00:29:04.952Z,11.11
2019-04-27T00:31:33.642Z,11.11
2019-04-27T00:34:03.581Z,11.11
2019-04-27T00:36:38.809Z,11.11
2019-04-27T00:39:19.432Z,11.14
2019-04-27T00:41:47.563Z,11.14
2019-04-27T00:44:17.434Z,11.18
2019-04-27T00:46:47.400Z,11.19
2019-04-27T00:49:16.048Z,11.21
2019-04-27T00:51:44.597Z,11.21
2019-04-27T00:54:13.621Z,11.23
2019-04-27T00:57:03.093Z,11.24
2019-04-27T00:59:54.629Z,11.27
2019-04-27T01:02:45.091Z,11.29
2019-04-27T01:05:20.965Z,11.32
2019-04-27T01:07:50.055Z,11.37
2019-04-27T01:10:18.620Z,11.39
2019-04-27T01:12:46.652Z,11.43
2019-04-27T01:15:15.867Z,11.46
2019-04-27T01:17:43.917Z,11.49
2019-04-27T01:20:13.104Z,11.51
2019-04-27T01:22:41.162Z,11.54
2019-04-27T01:25:09.662Z,11.56
2019-04-27T01:27:59.538Z,11.61
2019-04-27T01:30:32.135Z,11.64
2019-04-27T01:33:00.196Z,11.63
2019-04-27T01:35:32.559Z,11.66
2019-04-27T01:38:02.496Z,11.68
2019-04-27T01:40:30.723Z,11.69
2019-04-27T01:42:59.879Z,11.72
2019-04-27T01:45:29.008Z,11.74
2019-04-27T01:47:57.270Z,11.78
2019-04-27T01:50:25.358Z,11.80
2019-04-27T01:52:53.555Z,11.82
2019-04-27T01:55:21.712Z,11.84
2019-04-27T01:57:50.729Z,11.86
2019-04-27T02:01:02.739Z,11.86
2019-04-27T02:03:59.042Z,11.88
2019-04-27T02:06:29.498Z,11.84
2019-04-27T02:08:59.426Z,11.81
2019-04-27T02:11:28.759Z,11.79
2019-04-27T02:13:57.002Z,11.80
2019-04-27T02:16:25.062Z,11.82
2019-04-27T02:18:53.147Z,11.85
2019-04-27T02:21:22.937Z,11.87
2019-04-27T02:23:51.775Z,11.88
2019-04-27T02:26:21.761Z,11.86
2019-04-27T02:29:12.625Z,11.90
2019-04-27T02:31:55.137Z,11.91
2019-04-27T02:34:25.989Z,11.91
2019-04-27T02:36:54.495Z,11.93
2019-04-27T02:39:22.613Z,11.95
2019-04-27T02:41:52.003Z,11.97
2019-04-27T02:44:45.314Z,11.99
2019-04-27T02:47:13.860Z,12.00
2019-04-27T02:49:41.984Z,12.02
2019-04-27T02:52:30.202Z,12.04
2019-04-27T02:54:59.433Z,12.07
2019-04-27T02:57:29.721Z,12.09
2019-04-27T02:59:59.720Z,12.11
2019-04-27T03:02:47.392Z,12.14
2019-04-27T03:05:24.837Z,12.15
2019-04-27T03:07:53.684Z,12.15
2019-04-27T03:10:22.657Z,12.18
2019-04-27T03:12:59.992Z,12.17
2019-04-27T03:15:49.594Z,12.17
2019-04-27T03:18:34.475Z,12.16
2019-04-27T03:21:15.747Z,12.15
2019-04-27T03:23:44.806Z,12.15
2019-04-27T03:26:44.583Z,12.12
2019-04-27T03:29:13.729Z,12.11
2019-04-27T03:31:47.563Z,12.08
2019-04-27T03:34:16.476Z,12.06
2019-04-27T03:36:44.556Z,12.05
2019-04-27T03:39:13.617Z,12.03
2019-04-27T03:41:41.991Z,12.02
2019-04-27T03:44:11.443Z,12.02
2019-04-27T03:46:39.828Z,12.02
2019-04-27T03:49:09.756Z,12.00
2019-04-27T03:51:54.050Z,12.00
2019-04-27T03:54:50.358Z,11.97
2019-04-27T03:57:30.510Z,11.95
2019-04-27T04:00:04.607Z,11.91
2019-04-27T04:02:34.660Z,11.89
2019-04-27T04:05:05.489Z,11.88
2019-04-27T04:07:33.551Z,11.87
2019-04-27T04:10:01.631Z,11.85
2019-04-27T04:12:50.049Z,11.84
2019-04-27T04:15:29.868Z,11.82
2019-04-27T04:17:59.486Z,11.82
2019-04-27T04:20:30.362Z,11.83
2019-04-27T04:23:02.788Z,11.82
2019-04-27T04:25:33.124Z,11.84
2019-04-27T04:28:00.775Z,11.84
2019-04-27T04:30:30.300Z,11.87
2019-04-27T04:32:59.978Z,11.90
2019-04-27T04:35:32.461Z,11.91
2019-04-27T04:38:00.222Z,11.93
2019-04-27T04:40:40.091Z,11.95
2019-04-27T04:43:19.690Z,11.97
2019-04-27T04:45:55.028Z,11.99
2019-04-27T04:48:23.400Z,12.01
2019-04-27T04:50:51.464Z,12.04
2019-04-27T04:53:20.634Z,12.08
2019-04-27T04:55:49.024Z,12.10
2019-04-27T04:58:20.556Z,12.13
2019-04-27T05:00:47.213Z,12.18
2019-04-27T05:03:15.613Z,12.23
2019-04-27T05:05:43.688Z,12.27
2019-04-27T05:08:12.439Z,12.29
2019-04-27T05:10:40.565Z,12.34
2019-04-27T05:13:09.442Z,12.39
2019-04-27T05:15:39.356Z,12.44
2019-04-27T05:18:09.653Z,12.49
2019-04-27T05:20:58.794Z,12.54
2019-04-27T05:23:28.652Z,12.55
2019-04-27T05:25:56.829Z,12.58
2019-04-27T05:28:25.982Z,12.64
2019-04-27T05:30:54.034Z,12.68
2019-04-27T05:33:22.124Z,12.72
2019-04-27T05:35:50.445Z,12.77
2019-04-27T05:38:19.271Z,12.80
2019-04-27T05:40:47.523Z,12.86
2019-04-27T05:43:19.279Z,12.91
2019-04-27T05:46:49.343Z,12.99
2019-04-27T05:49:23.424Z,13.04
2019-04-27T05:51:51.454Z,13.11
2019-04-27T05:54:19.780Z,13.18
2019-04-27T05:56:49.240Z,13.25
2019-04-27T05:59:19.251Z,13.32
2019-04-27T06:01:49.093Z,13.37
2019-04-27T06:04:19.080Z,13.42
2019-04-27T06:06:47.226Z,13.46
2019-04-27T06:09:15.322Z,13.51
2019-04-27T06:11:43.343Z,13.55
2019-04-27T06:14:11.424Z,13.61
2019-04-27T06:16:39.568Z,13.65
2019-04-27T06:19:09.428Z,13.68
2019-04-27T06:21:37.598Z,13.71
2019-04-27T06:24:08.679Z,13.72
2019-04-27T06:26:36.740Z,13.75
2019-04-27T06:29:04.993Z,13.77
2019-04-27T06:31:34.121Z,13.82
2019-04-27T06:34:02.407Z,13.83
2019-04-27T06:36:30.451Z,13.84
2019-04-27T06:38:59.000Z,13.87
2019-04-27T06:41:29.464Z,13.88
2019-04-27T06:43:59.207Z,13.86
2019-04-27T06:46:28.770Z,13.81
2019-04-27T06:48:57.149Z,13.80
2019-04-27T06:51:25.196Z,13.78
2019-04-27T06:53:54.368Z,13.77
2019-04-27T06:56:22.425Z,13.73
2019-04-27T06:58:50.762Z,13.71
2019-04-27T07:01:19.104Z,13.74
2019-04-27T07:03:48.733Z,13.76
2019-04-27T07:06:18.619Z,13.76
2019-04-27T07:08:49.841Z,13.70
2019-04-27T07:11:19.709Z,13.71
2019-04-27T07:13:49.765Z,13.71
2019-04-27T07:16:19.608Z,13.65
2019-04-27T07:18:47.914Z,13.62
2019-04-27T07:21:19.361Z,13.66
2019-04-27T07:23:59.353Z,13.62
2019-04-27T07:26:30.334Z,13.62
2019-04-27T07:28:59.618Z,13.62
2019-04-27T07:31:31.614Z,13.56
2019-04-27T07:33:59.658Z,13.53
2019-04-27T07:36:28.996Z,13.54
2019-04-27T07:38:57.222Z,13.59
2019-04-27T07:41:25.392Z,13.60
2019-04-27T07:44:03.440Z,13.60
2019-04-27T07:46:31.838Z,13.60
2019-04-27T07:49:01.637Z,13.59
2019-04-27T07:51:34.127Z,13.60
2019-04-27T07:53:59.726Z,13.56
2019-04-27T07:56:29.149Z,13.55
2019-04-27T07:58:59.415Z,13.52
2019-04-27T08:01:29.401Z,13.53
2019-04-27T08:03:59.014Z,13.53
2019-04-27T08:06:29.072Z,13.50
2019-04-27T08:08:58.849Z,13.52
2019-04-27T08:11:29.186Z,13.46
2019-04-27T08:13:58.899Z,13.45
2019-04-27T08:16:28.869Z,13.41
2019-04-27T08:18:57.131Z,13.41
2019-04-27T08:21:25.420Z,13.43
2019-04-27T08:23:53.508Z,13.42
2019-04-27T08:26:35.137Z,13.37
2019-04-27T08:29:18.511Z,13.38
2019-04-27T08:31:58.494Z,13.43
2019-04-27T08:34:32.443Z,13.47
2019-04-27T08:37:02.463Z,13.52
2019-04-27T08:39:30.764Z,13.54
2019-04-27T08:41:59.488Z,13.57
2019-04-27T08:44:31.808Z,13.60
2019-04-27T08:47:01.188Z,13.62
2019-04-27T08:49:31.589Z,13.61
2019-04-27T08:52:01.816Z,13.58
2019-04-27T08:54:29.617Z,13.59
2019-04-27T08:56:59.625Z,13.60
2019-04-27T08:59:29.658Z,13.62
2019-04-27T09:01:58.711Z,13.61
2019-04-27T09:04:28.758Z,13.59
2019-04-27T09:07:02.130Z,13.61
2019-04-27T09:09:37.019Z,13.63
2019-04-27T09:12:23.004Z,13.62
2019-04-27T09:14:59.275Z,13.63
2019-04-27T09:17:39.785Z,13.63
2019-04-27T09:20:14.936Z,13.63
2019-04-27T09:22:43.122Z,13.68
2019-04-27T09:25:11.616Z,13.72
2019-04-27T09:27:40.446Z,13.76
2019-04-27T09:30:10.239Z,13.84
2019-04-27T09:32:40.818Z,13.88
2019-04-27T09:35:09.104Z,13.92
2019-04-27T09:37:37.141Z,13.92
2019-04-27T09:40:06.310Z,14.00
2019-04-27T09:42:38.165Z,14.03
2019-04-27T09:45:06.655Z,14.06
2019-04-27T09:47:38.831Z,14.06
2019-04-27T09:50:06.402Z,14.10
2019-04-27T09:52:35.861Z,14.07
2019-04-27T09:55:06.915Z,14.09
2019-04-27T09:57:36.468Z,14.11
2019-04-27T10:00:08.191Z,14.12
2019-04-27T10:02:37.446Z,14.14
2019-04-27T10:05:06.931Z,14.19
2019-04-27T10:07:35.902Z,14.29
2019-04-27T10:10:06.471Z,14.36
2019-04-27T10:12:36.822Z,14.44
2019-04-27T10:15:06.177Z,14.52
2019-04-27T10:17:35.376Z,14.57
2019-04-27T10:20:05.950Z,14.54
2019-04-27T10:22:41.040Z,14.63
2019-04-27T10:25:05.413Z,14.71
2019-04-27T10:27:33.477Z,14.75
2019-04-27T10:30:01.549Z,14.86
2019-04-27T10:32:29.733Z,14.87
2019-04-27T10:34:57.797Z,14.84
2019-04-27T10:37:26.996Z,14.81
2019-04-27T10:39:56.049Z,14.80
2019-04-27T10:42:25.386Z,14.80
2019-04-27T10:44:56.046Z,14.84
2019-04-27T10:47:25.981Z,14.88
2019-04-27T10:49:54.201Z,14.89
2019-04-27T10:52:22.254Z,14.92
2019-04-27T10:55:00.552Z,14.95
2019-04-27T10:57:30.482Z,15.00
2019-04-27T10:59:59.211Z,15.02
2019-04-27T11:02:27.235Z,15.02
2019-04-27T11:05:14.946Z,15.10
2019-04-27T11:07:43.134Z,15.07
2019-04-27T11:10:11.618Z,15.08
2019-04-27T11:12:39.673Z,15.07
2019-04-27T11:15:09.870Z,15.10
2019-04-27T11:17:38.022Z,15.09
2019-04-27T11:20:07.502Z,15.12
2019-04-27T11:22:36.302Z,15.12
2019-04-27T11:25:06.255Z,15.20
2019-04-27T11:27:34.388Z,15.27
2019-04-27T11:30:02.606Z,15.36
2019-04-27T11:32:32.582Z,15.40
2019-04-27T11:35:08.220Z,15.46
2019-04-27T11:37:39.053Z,15.53
2019-04-27T11:40:07.900Z,15.65
2019-04-27T11:42:35.996Z,15.73
2019-04-27T11:45:06.581Z,15.75
2019-04-27T11:47:36.525Z,15.82
2019-04-27T11:50:08.256Z,15.89
2019-04-27T11:52:36.744Z,15.95
2019-04-27T11:55:05.867Z,15.99
2019-04-27T11:57:35.762Z,15.99
2019-04-27T12:00:07.616Z,16.09
2019-04-27T12:02:36.062Z,16.17
2019-04-27T12:05:07.685Z,16.23
2019-04-27T12:07:35.506Z,16.35
2019-04-27T12:10:05.684Z,16.49
2019-04-27T12:12:36.319Z,16.56
2019-04-27T12:15:06.484Z,16.62
2019-04-27T12:17:35.873Z,16.61
2019-04-27T12:20:05.023Z,16.60
2019-04-27T12:22:34.726Z,16.56
2019-04-27T12:25:03.774Z,16.50
2019-04-27T12:27:55.692Z,16.46
2019-04-27T12:30:46.544Z,16.36
2019-04-27T12:33:15.873Z,16.24
2019-04-27T12:35:43.924Z,16.18
2019-04-27T12:38:12.292Z,16.13
2019-04-27T12:40:40.389Z,16.15
2019-04-27T12:43:08.542Z,16.18
2019-04-27T12:45:40.295Z,16.25
2019-04-27T12:48:07.176Z,16.43
2019-04-27T12:50:36.222Z,16.58
2019-04-27T12:53:08.031Z,16.70
2019-04-27T12:56:01.842Z,16.83
2019-04-27T12:58:53.884Z,16.90
2019-04-27T13:01:25.736Z,16.88
2019-04-27T13:03:57.113Z,16.82
2019-04-27T13:06:23.930Z,16.80
2019-04-27T13:08:52.063Z,16.63
2019-04-27T13:11:22.940Z,16.48
2019-04-27T13:13:51.118Z,16.12
2019-04-27T13:16:19.174Z,15.77
2019-04-27T13:18:47.820Z,15.58
2019-04-27T13:21:17.735Z,15.34
2019-04-27T13:23:46.109Z,15.15
2019-04-27T13:26:14.139Z,15.05
2019-04-27T13:28:42.281Z,14.97
2019-04-27T13:31:10.327Z,14.91
2019-04-27T13:33:38.455Z,14.86
2019-04-27T13:36:07.870Z,14.70
2019-04-27T13:38:36.596Z,14.64
2019-04-27T13:41:06.255Z,14.56
2019-04-27T13:43:35.970Z,14.52
2019-04-27T13:46:16.074Z,14.54
2019-04-27T13:49:02.076Z,14.56
2019-04-27T13:51:49.836Z,14.61
2019-04-27T13:54:25.821Z,14.65
2019-04-27T13:56:49.570Z,14.68
2019-04-27T13:59:17.655Z,14.71
2019-04-27T14:01:45.838Z,14.72
2019-04-27T14:04:14.062Z,14.75
2019-04-27T14:06:42.230Z,14.72
2019-04-27T14:09:12.754Z,14.69
2019-04-27T14:11:41.648Z,14.74
2019-04-27T14:14:18.425Z,14.82
2019-04-27T14:16:45.267Z,14.95
2019-04-27T14:19:22.774Z,15.09
2019-04-27T14:21:51.361Z,15.27
2019-04-27T14:24:27.721Z,15.47
2019-04-27T14:26:50.072Z,15.63
2019-04-27T14:29:19.359Z,15.80
2019-04-27T14:31:47.859Z,15.99
2019-04-27T14:34:19.017Z,16.14
2019-04-27T14:36:48.856Z,16.26
2019-04-27T14:39:18.499Z,16.30
2019-04-27T14:41:46.854Z,16.32
2019-04-27T14:44:23.062Z,16.36
2019-04-27T14:46:55.251Z,16.42
2019-04-27T14:49:23.356Z,16.44
2019-04-27T14:51:51.521Z,16.41
2019-04-27T14:54:20.752Z,16.33
2019-04-27T14:56:49.000Z,16.27
2019-04-27T14:59:18.688Z,16.21
2019-04-27T15:01:48.678Z,16.16
2019-04-27T15:04:16.912Z,16.13
2019-04-27T15:06:45.617Z,16.11
2019-04-27T15:09:18.026Z,16.11
2019-04-27T15:11:45.089Z,16.09
2019-04-27T15:14:31.075Z,16.10
2019-04-27T15:17:01.368Z,16.09
2019-04-27T15:19:35.979Z,16.08
2019-04-27T15:22:05.936Z,16.08
2019-04-27T15:24:34.019Z,16.07
2019-04-27T15:27:02.471Z,15.99
2019-04-27T15:29:32.533Z,15.94
2019-04-27T15:32:06.621Z,15.89
2019-04-27T15:35:07.807Z,15.81
2019-04-27T15:37:49.831Z,15.71
2019-04-27T15:40:28.885Z,15.57
2019-04-27T15:43:27.316Z,15.49
2019-04-27T15:45:57.703Z,15.43
2019-04-27T15:48:30.531Z,15.27
2019-04-27T15:51:02.878Z,15.18
2019-04-27T15:53:28.852Z,15.11
2019-04-27T15:56:00.015Z,15.02
2019-04-27T15:58:28.393Z,14.91
2019-04-27T16:01:09.062Z,14.82
2019-04-27T16:03:35.066Z,14.75
2019-04-27T16:06:08.102Z,14.69
2019-04-27T16:08:38.205Z,14.66
2019-04-27T16:11:17.740Z,14.58
2019-04-27T16:13:45.114Z,14.50
2019-04-27T16:16:14.295Z,14.42
2019-04-27T16:18:42.360Z,14.36
2019-04-27T16:21:10.973Z,14.28
2019-04-27T16:23:42.764Z,14.18
2019-04-27T16:26:11.101Z,14.12
2019-04-27T16:28:43.225Z,14.10
2019-04-27T16:31:09.571Z,14.05
2019-04-27T16:33:39.123Z,13.94
2019-04-27T16:36:07.584Z,13.90
2019-04-27T16:38:56.843Z,13.87
2019-04-27T16:41:25.951Z,13.81
2019-04-27T16:43:54.132Z,13.70
2019-04-27T16:46:22.219Z,13.69
2019-04-27T16:48:50.276Z,13.61
2019-04-27T16:51:18.542Z,13.53
2019-04-27T16:53:46.838Z,13.50
2019-04-27T16:56:18.301Z,13.45
2019-04-27T16:58:48.984Z,13.41
2019-04-27T17:01:23.286Z,13.37
2019-04-27T17:03:52.495Z,13.35
2019-04-27T17:06:21.765Z,13.31
2019-04-27T17:08:51.161Z,13.24
2019-04-27T17:11:19.876Z,13.21
2019-04-27T17:14:14.626Z,13.16
2019-04-27T17:17:03.643Z,13.14
2019-04-27T17:19:40.002Z,13.09
2019-04-27T17:22:10.473Z,13.11
2019-04-27T17:24:42.742Z,13.13
2019-04-27T17:27:29.831Z,13.17
2019-04-27T17:30:01.434Z,13.19
2019-04-27T17:32:38.977Z,13.23
2019-04-27T17:35:12.930Z,13.22
2019-04-27T17:37:38.293Z,13.21
2019-04-27T17:40:06.681Z,13.20
2019-04-27T17:42:44.795Z,13.17
2019-04-27T17:45:22.017Z,13.16
2019-04-27T17:47:51.437Z,13.14
2019-04-27T17:50:24.987Z,13.13
2019-04-27T17:52:55.043Z,13.11
2019-04-27T17:55:24.211Z,13.10
2019-04-27T17:57:50.059Z,13.09
2019-04-27T18:00:21.272Z,13.05
2019-04-27T18:02:50.666Z,13.00
2019-04-27T18:05:28.509Z,12.98
2019-04-27T18:07:57.999Z,12.93
2019-04-27T18:10:28.175Z,12.88
2019-04-27T18:12:58.716Z,12.83
2019-04-27T18:15:32.320Z,12.78
2019-04-27T18:18:05.956Z,12.73
2019-04-27T18:20:34.037Z,12.72
2019-04-27T18:23:08.892Z,12.73
2019-04-27T18:25:48.136Z,12.73
2019-04-27T18:28:20.883Z,12.75
2019-04-27T18:31:05.544Z,12.78
2019-04-27T18:33:38.634Z,12.77
2019-04-27T18:36:13.251Z,12.70
2019-04-27T18:38:39.053Z,12.63
2019-04-27T18:41:11.269Z,12.55
2019-04-27T18:43:45.921Z,12.52
2019-04-27T18:46:14.847Z,12.51
2019-04-27T18:49:03.980Z,12.51
2019-04-27T18:52:10.220Z,12.49
2019-04-27T18:54:41.913Z,12.45
2019-04-27T18:57:10.867Z,12.45
2019-04-27T18:59:39.055Z,12.45
2019-04-27T19:02:08.462Z,12.46
2019-04-27T19:04:36.844Z,12.44
2019-04-27T19:07:04.958Z,12.44
2019-04-27T19:09:33.586Z,12.41
2019-04-27T19:12:04.152Z,12.37
2019-04-27T19:14:36.573Z,12.33
2019-04-27T19:17:10.052Z,12.26
2019-04-27T19:19:42.483Z,12.27
2019-04-27T19:22:10.585Z,12.24
2019-04-27T19:24:38.674Z,12.21
2019-04-27T19:27:48.986Z,12.13
2019-04-27T19:30:33.949Z,12.10
2019-04-27T19:33:02.342Z,12.05
2019-04-27T19:35:30.462Z,12.04
2019-04-27T19:37:59.119Z,12.06
2019-04-27T19:40:29.045Z,12.07
2019-04-27T19:42:58.806Z,12.08
2019-04-27T19:45:29.143Z,12.10
2019-04-27T19:47:57.373Z,12.12
2019-04-27T19:50:25.583Z,12.13
2019-04-27T19:52:53.660Z,12.12
2019-04-27T19:55:33.880Z,12.13
2019-04-27T19:58:02.379Z,12.14
2019-04-27T20:00:50.485Z,12.15
2019-04-27T20:03:25.763Z,12.15
2019-04-27T20:05:53.978Z,12.14
2019-04-27T20:08:25.721Z,12.11
2019-04-27T20:10:53.968Z,12.07
2019-04-27T20:13:22.072Z,12.03
2019-04-27T20:16:04.931Z,12.00
2019-04-27T20:18:33.013Z,11.96
2019-04-27T20:21:01.148Z,11.94
2019-04-27T20:23:30.766Z,11.96
2019-04-27T20:26:00.215Z,11.98
2019-04-27T20:28:28.381Z,11.99
2019-04-27T20:30:56.478Z,12.01
2019-04-27T20:33:24.520Z,12.04
2019-04-27T20:35:52.636Z,12.04
2019-04-27T20:38:21.373Z,12.06
2019-04-27T20:40:51.046Z,12.05
2019-04-27T20:43:28.085Z,12.03
2019-04-27T20:45:56.619Z,12.00
2019-04-27T20:48:24.805Z,11.96
2019-04-27T20:50:53.000Z,11.92
2019-04-27T20:53:43.217Z,11.87
2019-04-27T20:56:11.466Z,11.84
2019-04-27T20:58:41.084Z,11.78
2019-04-27T21:01:09.353Z,11.75
2019-04-27T21:03:51.166Z,11.73
2019-04-27T21:06:30.960Z,11.70
2019-04-27T21:09:16.758Z,11.66
2019-04-27T21:11:48.493Z,11.57
2019-04-27T21:14:16.640Z,11.52
2019-04-27T21:16:45.818Z,11.45
2019-04-27T21:19:14.272Z,11.40
2019-04-27T21:21:48.655Z,11.38
2019-04-27T21:24:17.101Z,11.29
2019-04-27T21:26:45.248Z,11.24
2019-04-27T21:29:13.599Z,11.20
2019-04-27T21:31:42.142Z,11.15
2019-04-27T21:34:10.190Z,11.08
2019-04-27T21:36:47.801Z,11.05
2019-04-27T21:39:16.975Z,10.99
2019-04-27T21:41:45.206Z,10.92
2019-04-27T21:44:13.387Z,10.85
2019-04-27T21:46:41.766Z,10.79
2019-04-27T21:49:11.204Z,10.77
2019-04-27T21:52:08.080Z,10.72
2019-04-27T21:54:37.153Z,10.69
2019-04-27T21:57:13.444Z,10.63
2019-04-27T21:59:42.105Z,10.60
2019-04-27T22:02:12.145Z,10.62
2019-04-27T22:04:41.654Z,10.61
2019-04-27T22:07:19.238Z,10.60
2019-04-27T22:09:47.397Z,10.57
2019-04-27T22:12:15.956Z,10.56
2019-04-27T22:14:44.330Z,10.56
2019-04-27T22:17:12.629Z,10.57
2019-04-27T22:19:41.394Z,10.55
2019-04-27T22:22:21.069Z,10.52
2019-04-27T22:24:49.149Z,10.51
2019-04-27T22:27:17.251Z,10.52
2019-04-27T22:29:45.282Z,10.54
2019-04-27T22:32:13.424Z,10.56
2019-04-27T22:34:41.488Z,10.58
2019-04-27T22:37:11.086Z,10.58
2019-04-27T22:39:45.772Z,10.56
2019-04-27T22:42:49.142Z,10.53
2019-04-27T22:45:21.232Z,10.50
2019-04-27T22:47:51.223Z,10.45
2019-04-27T22:50:21.060Z,10.43
2019-04-27T22:52:50.243Z,10.41
2019-04-27T22:55:18.252Z,10.41
2019-04-27T22:57:57.840Z,10.43
2019-04-27T23:00:42.654Z,10.44
2019-04-27T23:03:14.473Z,10.46
2019-04-27T23:05:42.979Z,10.49
2019-04-27T23:08:11.174Z,10.52
2019-04-27T23:10:39.410Z,10.56
2019-04-27T23:13:11.239Z,10.60
2019-04-27T23:15:43.663Z,10.64
2019-04-27T23:18:11.868Z,10.64
2019-04-27T23:20:40.795Z,10.65
2019-04-27T23:23:11.381Z,10.65
2019-04-27T23:25:42.393Z,10.64
2019-04-27T23:28:09.437Z,10.65
2019-04-27T23:31:02.229Z,10.68
2019-04-27T23:33:31.086Z,10.68
2019-04-27T23:35:59.246Z,10.68
2019-04-27T23:38:27.593Z,10.70
2019-04-27T23:40:55.655Z,10.72
2019-04-27T23:43:23.728Z,10.70
2019-04-27T23:45:51.883Z,10.70
2019-04-27T23:48:19.977Z,10.68
2019-04-27T23:50:50.376Z,10.67
2019-04-27T23:53:21.861Z,10.66
2019-04-27T23:55:50.252Z,10.64
2019-04-27T23:58:18.308Z,10.64
